sensor_id;sensor_type;location;lat;lon;timestamp;P1;durP1;ratioP1;P2;durP2;ratioP2
59530;SDS011;45349;48.692;8.186;2022-09-25T00:01:23;6.03;;;4.90;;
59530;SDS011;45349;48.692;8.186;2022-09-25T00:03:51;6.63;;;4.90;;
59530;SDS011;45349;48.692;8.186;2022-09-25T00:06:19;9.73;;;4.90;;
59530;SDS011;45349;48.692;8.186;2022-09-25T00:08:47;15.77;;;4.97;;
59530;SDS011;45349;48.692;8.186;2022-09-25T00:11:15;6.47;;;5.17;;
59530;SDS011;45349;48.692;8.186;2022-09-25T00:13:43;10.80;;;6.00;;
59530;SDS011;45349;48.692;8.186;2022-09-25T00:16:10;7.23;;;5.57;;
59530;SDS011;45349;48.692;8.186;2022-09-25T00:18:39;7.17;;;5.67;;
59530;SDS011;45349;48.692;8.186;2022-09-25T00:21:31;9.57;;;5.80;;
59530;SDS011;45349;48.692;8.186;2022-09-25T00:23:58;7.30;;;5.53;;
59530;SDS011;45349;48.692;8.186;2022-09-25T00:26:26;9.20;;;5.70;;
59530;SDS011;45349;48.692;8.186;2022-09-25T00:28:54;8.47;;;6.03;;
59530;SDS011;45349;48.692;8.186;2022-09-25T00:31:21;10.93;;;5.90;;
59530;SDS011;45349;48.692;8.186;2022-09-25T00:33:49;9.23;;;6.40;;
59530;SDS011;45349;48.692;8.186;2022-09-25T00:36:16;11.03;;;5.63;;
59530;SDS011;45349;48.692;8.186;2022-09-25T00:38:44;9.97;;;6.10;;
59530;SDS011;45349;48.692;8.186;2022-09-25T00:41:13;7.27;;;5.40;;
59530;SDS011;45349;48.692;8.186;2022-09-25T00:43:41;11.80;;;5.60;;
59530;SDS011;45349;48.692;8.186;2022-09-25T00:46:10;9.60;;;5.87;;
59530;SDS011;45349;48.692;8.186;2022-09-25T00:48:43;8.07;;;5.90;;
59530;SDS011;45349;48.692;8.186;2022-09-25T00:51:14;9.03;;;6.90;;
59530;SDS011;45349;48.692;8.186;2022-09-25T00:53:45;9.33;;;6.03;;
59530;SDS011;45349;48.692;8.186;2022-09-25T00:56:12;9.97;;;5.90;;
59530;SDS011;45349;48.692;8.186;2022-09-25T00:58:40;9.40;;;6.40;;
59530;SDS011;45349;48.692;8.186;2022-09-25T01:01:07;8.70;;;6.40;;
59530;SDS011;45349;48.692;8.186;2022-09-25T01:03:35;8.60;;;6.13;;
59530;SDS011;45349;48.692;8.186;2022-09-25T01:06:02;10.27;;;6.87;;
59530;SDS011;45349;48.692;8.186;2022-09-25T01:08:29;8.17;;;6.00;;
59530;SDS011;45349;48.692;8.186;2022-09-25T01:10:58;13.90;;;6.70;;
59530;SDS011;45349;48.692;8.186;2022-09-25T01:13:26;8.60;;;6.67;;
59530;SDS011;45349;48.692;8.186;2022-09-25T01:15:56;11.60;;;6.60;;
59530;SDS011;45349;48.692;8.186;2022-09-25T01:18:39;8.83;;;6.70;;
59530;SDS011;45349;48.692;8.186;2022-09-25T01:21:13;9.97;;;6.63;;
59530;SDS011;45349;48.692;8.186;2022-09-25T01:23:54;10.23;;;6.40;;
59530;SDS011;45349;48.692;8.186;2022-09-25T01:26:42;11.70;;;6.53;;
59530;SDS011;45349;48.692;8.186;2022-09-25T01:29:28;10.70;;;6.33;;
59530;SDS011;45349;48.692;8.186;2022-09-25T01:32:02;9.03;;;6.47;;
59530;SDS011;45349;48.692;8.186;2022-09-25T01:34:37;8.60;;;6.23;;
59530;SDS011;45349;48.692;8.186;2022-09-25T01:37:09;9.70;;;7.00;;
59530;SDS011;45349;48.692;8.186;2022-09-25T01:39:44;10.93;;;6.53;;
59530;SDS011;45349;48.692;8.186;2022-09-25T01:42:14;7.97;;;6.33;;
59530;SDS011;45349;48.692;8.186;2022-09-25T01:44:48;9.10;;;6.43;;
59530;SDS011;45349;48.692;8.186;2022-09-25T01:47:21;9.53;;;6.73;;
59530;SDS011;45349;48.692;8.186;2022-09-25T01:49:52;7.70;;;6.17;;
59530;SDS011;45349;48.692;8.186;2022-09-25T01:52:24;7.73;;;6.33;;
59530;SDS011;45349;48.692;8.186;2022-09-25T01:54:55;8.90;;;6.00;;
59530;SDS011;45349;48.692;8.186;2022-09-25T01:57:28;9.63;;;6.27;;
59530;SDS011;45349;48.692;8.186;2022-09-25T02:00:00;9.57;;;6.30;;
59530;SDS011;45349;48.692;8.186;2022-09-25T02:02:44;9.23;;;5.70;;
59530;SDS011;45349;48.692;8.186;2022-09-25T02:05:15;10.03;;;5.83;;
59530;SDS011;45349;48.692;8.186;2022-09-25T02:07:47;8.63;;;5.67;;
59530;SDS011;45349;48.692;8.186;2022-09-25T02:10:19;9.53;;;5.20;;
59530;SDS011;45349;48.692;8.186;2022-09-25T02:12:51;10.47;;;4.73;;
59530;SDS011;45349;48.692;8.186;2022-09-25T02:15:24;14.30;;;5.20;;
59530;SDS011;45349;48.692;8.186;2022-09-25T02:17:54;8.77;;;5.67;;
59530;SDS011;45349;48.692;8.186;2022-09-25T02:20:43;8.73;;;5.70;;
59530;SDS011;45349;48.692;8.186;2022-09-25T02:23:16;11.27;;;5.70;;
59530;SDS011;45349;48.692;8.186;2022-09-25T02:25:46;7.63;;;5.33;;
59530;SDS011;45349;48.692;8.186;2022-09-25T02:28:17;8.70;;;5.43;;
59530;SDS011;45349;48.692;8.186;2022-09-25T02:30:45;10.50;;;5.97;;
59530;SDS011;45349;48.692;8.186;2022-09-25T02:33:14;6.67;;;5.10;;
59530;SDS011;45349;48.692;8.186;2022-09-25T02:35:40;8.47;;;5.40;;
59530;SDS011;45349;48.692;8.186;2022-09-25T02:38:07;7.30;;;5.30;;
59530;SDS011;45349;48.692;8.186;2022-09-25T02:40:35;8.13;;;5.87;;
59530;SDS011;45349;48.692;8.186;2022-09-25T02:43:08;9.87;;;5.73;;
59530;SDS011;45349;48.692;8.186;2022-09-25T02:45:46;11.07;;;5.70;;
59530;SDS011;45349;48.692;8.186;2022-09-25T02:48:26;12.90;;;6.47;;
59530;SDS011;45349;48.692;8.186;2022-09-25T02:50:59;11.57;;;5.70;;
59530;SDS011;45349;48.692;8.186;2022-09-25T02:53:34;9.30;;;5.80;;
59530;SDS011;45349;48.692;8.186;2022-09-25T02:56:05;8.80;;;5.30;;
59530;SDS011;45349;48.692;8.186;2022-09-25T02:58:38;10.17;;;5.23;;
59530;SDS011;45349;48.692;8.186;2022-09-25T03:03:52;8.27;;;5.70;;
59530;SDS011;45349;48.692;8.186;2022-09-25T03:06:22;7.20;;;5.70;;
59530;SDS011;45349;48.692;8.186;2022-09-25T03:08:50;7.37;;;4.87;;
59530;SDS011;45349;48.692;8.186;2022-09-25T03:11:21;12.07;;;5.87;;
59530;SDS011;45349;48.692;8.186;2022-09-25T03:13:54;8.50;;;6.75;;
59530;SDS011;45349;48.692;8.186;2022-09-25T03:16:22;13.10;;;6.20;;
59530;SDS011;45349;48.692;8.186;2022-09-25T03:18:59;9.80;;;5.57;;
59530;SDS011;45349;48.692;8.186;2022-09-25T03:21:25;7.67;;;5.90;;
59530;SDS011;45349;48.692;8.186;2022-09-25T03:23:52;12.20;;;5.43;;
59530;SDS011;45349;48.692;8.186;2022-09-25T03:26:21;7.67;;;5.10;;
59530;SDS011;45349;48.692;8.186;2022-09-25T03:28:47;9.50;;;5.33;;
59530;SDS011;45349;48.692;8.186;2022-09-25T03:31:14;9.10;;;5.37;;
59530;SDS011;45349;48.692;8.186;2022-09-25T03:33:42;12.77;;;5.97;;
59530;SDS011;45349;48.692;8.186;2022-09-25T03:36:10;7.03;;;5.10;;
59530;SDS011;45349;48.692;8.186;2022-09-25T03:38:38;9.00;;;5.37;;
59530;SDS011;45349;48.692;8.186;2022-09-25T03:41:07;6.93;;;4.93;;
59530;SDS011;45349;48.692;8.186;2022-09-25T03:43:35;7.97;;;4.53;;
59530;SDS011;45349;48.692;8.186;2022-09-25T03:46:03;8.87;;;5.37;;
59530;SDS011;45349;48.692;8.186;2022-09-25T03:48:29;9.27;;;5.50;;
59530;SDS011;45349;48.692;8.186;2022-09-25T03:50:56;9.87;;;5.13;;
59530;SDS011;45349;48.692;8.186;2022-09-25T03:53:24;6.93;;;5.30;;
59530;SDS011;45349;48.692;8.186;2022-09-25T03:55:51;9.30;;;5.37;;
59530;SDS011;45349;48.692;8.186;2022-09-25T03:58:19;8.77;;;4.90;;
59530;SDS011;45349;48.692;8.186;2022-09-25T04:00:46;7.17;;;4.70;;
59530;SDS011;45349;48.692;8.186;2022-09-25T04:03:12;7.70;;;4.47;;
59530;SDS011;45349;48.692;8.186;2022-09-25T04:05:40;6.90;;;5.07;;
59530;SDS011;45349;48.692;8.186;2022-09-25T04:08:07;9.63;;;5.20;;
59530;SDS011;45349;48.692;8.186;2022-09-25T04:10:36;7.67;;;4.83;;
59530;SDS011;45349;48.692;8.186;2022-09-25T04:13:03;6.90;;;4.93;;
59530;SDS011;45349;48.692;8.186;2022-09-25T04:15:30;9.73;;;4.87;;
59530;SDS011;45349;48.692;8.186;2022-09-25T04:17:57;10.37;;;4.40;;
59530;SDS011;45349;48.692;8.186;2022-09-25T04:20:24;9.83;;;5.03;;
59530;SDS011;45349;48.692;8.186;2022-09-25T04:22:50;8.47;;;4.03;;
59530;SDS011;45349;48.692;8.186;2022-09-25T04:25:17;7.73;;;4.10;;
59530;SDS011;45349;48.692;8.186;2022-09-25T04:27:46;8.00;;;4.43;;
59530;SDS011;45349;48.692;8.186;2022-09-25T04:30:13;6.33;;;4.20;;
59530;SDS011;45349;48.692;8.186;2022-09-25T04:32:40;6.73;;;4.73;;
59530;SDS011;45349;48.692;8.186;2022-09-25T04:35:24;7.70;;;4.73;;
59530;SDS011;45349;48.692;8.186;2022-09-25T04:37:51;7.80;;;4.83;;
59530;SDS011;45349;48.692;8.186;2022-09-25T04:40:19;7.17;;;5.27;;
59530;SDS011;45349;48.692;8.186;2022-09-25T04:42:47;9.90;;;6.23;;
59530;SDS011;45349;48.692;8.186;2022-09-25T04:45:13;8.17;;;5.80;;
59530;SDS011;45349;48.692;8.186;2022-09-25T04:47:40;7.77;;;5.50;;
59530;SDS011;45349;48.692;8.186;2022-09-25T04:50:06;9.80;;;5.10;;
59530;SDS011;45349;48.692;8.186;2022-09-25T04:52:33;8.73;;;5.40;;
59530;SDS011;45349;48.692;8.186;2022-09-25T04:55:00;7.70;;;5.40;;
59530;SDS011;45349;48.692;8.186;2022-09-25T04:57:28;8.43;;;5.67;;
59530;SDS011;45349;48.692;8.186;2022-09-25T04:59:56;10.20;;;5.37;;
59530;SDS011;45349;48.692;8.186;2022-09-25T05:02:25;8.77;;;5.30;;
59530;SDS011;45349;48.692;8.186;2022-09-25T05:04:51;10.40;;;5.93;;
59530;SDS011;45349;48.692;8.186;2022-09-25T05:07:18;10.90;;;5.83;;
59530;SDS011;45349;48.692;8.186;2022-09-25T05:09:44;8.63;;;5.20;;
59530;SDS011;45349;48.692;8.186;2022-09-25T05:12:11;11.53;;;5.50;;
59530;SDS011;45349;48.692;8.186;2022-09-25T05:14:37;9.93;;;5.70;;
59530;SDS011;45349;48.692;8.186;2022-09-25T05:17:08;10.13;;;5.30;;
59530;SDS011;45349;48.692;8.186;2022-09-25T05:19:35;11.03;;;5.10;;
59530;SDS011;45349;48.692;8.186;2022-09-25T05:22:01;9.37;;;5.70;;
59530;SDS011;45349;48.692;8.186;2022-09-25T05:24:28;9.30;;;5.53;;
59530;SDS011;45349;48.692;8.186;2022-09-25T05:26:55;8.87;;;4.90;;
59530;SDS011;45349;48.692;8.186;2022-09-25T05:29:23;8.80;;;5.60;;
59530;SDS011;45349;48.692;8.186;2022-09-25T05:31:49;8.40;;;5.97;;
59530;SDS011;45349;48.692;8.186;2022-09-25T05:34:17;7.73;;;5.80;;
59530;SDS011;45349;48.692;8.186;2022-09-25T05:36:43;8.17;;;5.30;;
59530;SDS011;45349;48.692;8.186;2022-09-25T05:39:10;7.60;;;5.13;;
59530;SDS011;45349;48.692;8.186;2022-09-25T05:41:37;9.73;;;5.67;;
59530;SDS011;45349;48.692;8.186;2022-09-25T05:44:03;10.80;;;6.73;;
59530;SDS011;45349;48.692;8.186;2022-09-25T05:46:33;10.17;;;6.47;;
59530;SDS011;45349;48.692;8.186;2022-09-25T05:49:00;16.93;;;9.00;;
59530;SDS011;45349;48.692;8.186;2022-09-25T05:51:28;11.47;;;8.27;;
59530;SDS011;45349;48.692;8.186;2022-09-25T05:53:55;10.80;;;6.80;;
59530;SDS011;45349;48.692;8.186;2022-09-25T05:56:21;8.27;;;5.90;;
59530;SDS011;45349;48.692;8.186;2022-09-25T05:58:49;9.27;;;7.00;;
59530;SDS011;45349;48.692;8.186;2022-09-25T06:01:16;9.03;;;6.73;;
59530;SDS011;45349;48.692;8.186;2022-09-25T06:03:43;9.27;;;5.50;;
59530;SDS011;45349;48.692;8.186;2022-09-25T06:06:10;9.67;;;6.27;;
59530;SDS011;45349;48.692;8.186;2022-09-25T06:08:38;11.53;;;7.87;;
59530;SDS011;45349;48.692;8.186;2022-09-25T06:11:05;16.93;;;12.10;;
59530;SDS011;45349;48.692;8.186;2022-09-25T06:13:32;16.63;;;11.90;;
59530;SDS011;45349;48.692;8.186;2022-09-25T06:16:01;15.73;;;10.53;;
59530;SDS011;45349;48.692;8.186;2022-09-25T06:18:29;16.17;;;12.20;;
59530;SDS011;45349;48.692;8.186;2022-09-25T06:21:00;15.63;;;12.00;;
59530;SDS011;45349;48.692;8.186;2022-09-25T06:23:29;19.23;;;11.70;;
59530;SDS011;45349;48.692;8.186;2022-09-25T06:26:00;17.33;;;10.70;;
59530;SDS011;45349;48.692;8.186;2022-09-25T06:28:27;17.23;;;10.67;;
59530;SDS011;45349;48.692;8.186;2022-09-25T06:30:55;18.47;;;11.60;;
59530;SDS011;45349;48.692;8.186;2022-09-25T06:33:24;18.27;;;11.20;;
59530;SDS011;45349;48.692;8.186;2022-09-25T06:35:51;13.37;;;10.50;;
59530;SDS011;45349;48.692;8.186;2022-09-25T06:38:17;16.47;;;9.77;;
59530;SDS011;45349;48.692;8.186;2022-09-25T06:40:44;11.23;;;8.97;;
59530;SDS011;45349;48.692;8.186;2022-09-25T06:43:12;12.90;;;8.97;;
59530;SDS011;45349;48.692;8.186;2022-09-25T06:45:40;12.07;;;9.53;;
59530;SDS011;45349;48.692;8.186;2022-09-25T06:48:08;11.80;;;9.23;;
59530;SDS011;45349;48.692;8.186;2022-09-25T06:50:38;13.33;;;9.33;;
59530;SDS011;45349;48.692;8.186;2022-09-25T06:53:07;11.70;;;9.30;;
59530;SDS011;45349;48.692;8.186;2022-09-25T06:55:33;12.03;;;9.53;;
59530;SDS011;45349;48.692;8.186;2022-09-25T06:58:00;15.20;;;9.73;;
59530;SDS011;45349;48.692;8.186;2022-09-25T07:00:29;15.60;;;10.57;;
59530;SDS011;45349;48.692;8.186;2022-09-25T07:02:56;11.73;;;9.40;;
59530;SDS011;45349;48.692;8.186;2022-09-25T07:05:41;14.10;;;9.30;;
59530;SDS011;45349;48.692;8.186;2022-09-25T07:08:09;12.50;;;9.33;;
59530;SDS011;45349;48.692;8.186;2022-09-25T07:10:37;13.30;;;9.87;;
59530;SDS011;45349;48.692;8.186;2022-09-25T07:13:04;13.70;;;9.37;;
59530;SDS011;45349;48.692;8.186;2022-09-25T07:15:31;14.30;;;10.33;;
59530;SDS011;45349;48.692;8.186;2022-09-25T07:17:58;17.93;;;10.33;;
59530;SDS011;45349;48.692;8.186;2022-09-25T07:20:24;13.77;;;10.50;;
59530;SDS011;45349;48.692;8.186;2022-09-25T07:22:51;16.73;;;11.50;;
59530;SDS011;45349;48.692;8.186;2022-09-25T07:25:19;17.00;;;11.87;;
59530;SDS011;45349;48.692;8.186;2022-09-25T07:27:45;18.90;;;11.80;;
59530;SDS011;45349;48.692;8.186;2022-09-25T07:30:12;19.53;;;11.07;;
59530;SDS011;45349;48.692;8.186;2022-09-25T07:32:39;16.93;;;12.20;;
59530;SDS011;45349;48.692;8.186;2022-09-25T07:35:09;23.50;;;14.50;;
59530;SDS011;45349;48.692;8.186;2022-09-25T07:37:35;21.00;;;11.93;;
59530;SDS011;45349;48.692;8.186;2022-09-25T07:40:02;17.83;;;13.93;;
59530;SDS011;45349;48.692;8.186;2022-09-25T07:42:29;23.63;;;15.17;;
59530;SDS011;45349;48.692;8.186;2022-09-25T07:44:56;20.40;;;14.37;;
59530;SDS011;45349;48.692;8.186;2022-09-25T07:47:22;23.80;;;14.83;;
59530;SDS011;45349;48.692;8.186;2022-09-25T07:49:50;20.90;;;15.10;;
59530;SDS011;45349;48.692;8.186;2022-09-25T07:52:17;20.20;;;14.90;;
59530;SDS011;45349;48.692;8.186;2022-09-25T07:54:43;21.57;;;15.23;;
59530;SDS011;45349;48.692;8.186;2022-09-25T07:57:10;26.87;;;17.00;;
59530;SDS011;45349;48.692;8.186;2022-09-25T07:59:37;21.80;;;16.13;;
59530;SDS011;45349;48.692;8.186;2022-09-25T08:02:03;23.17;;;15.83;;
59530;SDS011;45349;48.692;8.186;2022-09-25T08:04:30;21.03;;;15.47;;
59530;SDS011;45349;48.692;8.186;2022-09-25T08:06:58;21.43;;;15.33;;
59530;SDS011;45349;48.692;8.186;2022-09-25T08:09:25;22.53;;;14.80;;
59530;SDS011;45349;48.692;8.186;2022-09-25T08:11:52;20.23;;;14.53;;
59530;SDS011;45349;48.692;8.186;2022-09-25T08:14:18;19.13;;;14.00;;
59530;SDS011;45349;48.692;8.186;2022-09-25T08:16:46;19.17;;;13.07;;
59530;SDS011;45349;48.692;8.186;2022-09-25T08:19:13;20.90;;;14.73;;
59530;SDS011;45349;48.692;8.186;2022-09-25T08:21:42;18.80;;;15.00;;
59530;SDS011;45349;48.692;8.186;2022-09-25T08:24:10;19.93;;;14.03;;
59530;SDS011;45349;48.692;8.186;2022-09-25T08:26:37;21.70;;;14.90;;
59530;SDS011;45349;48.692;8.186;2022-09-25T08:29:03;22.40;;;14.30;;
59530;SDS011;45349;48.692;8.186;2022-09-25T08:31:31;22.00;;;15.17;;
59530;SDS011;45349;48.692;8.186;2022-09-25T08:33:58;21.00;;;15.27;;
59530;SDS011;45349;48.692;8.186;2022-09-25T08:36:25;19.40;;;13.93;;
59530;SDS011;45349;48.692;8.186;2022-09-25T08:38:52;21.23;;;14.93;;
59530;SDS011;45349;48.692;8.186;2022-09-25T08:41:25;20.60;;;14.23;;
59530;SDS011;45349;48.692;8.186;2022-09-25T08:43:56;19.13;;;14.13;;
59530;SDS011;45349;48.692;8.186;2022-09-25T08:46:32;21.70;;;15.17;;
59530;SDS011;45349;48.692;8.186;2022-09-25T08:49:23;20.23;;;14.50;;
59530;SDS011;45349;48.692;8.186;2022-09-25T08:51:54;20.10;;;15.23;;
59530;SDS011;45349;48.692;8.186;2022-09-25T08:54:27;20.67;;;14.83;;
59530;SDS011;45349;48.692;8.186;2022-09-25T08:56:58;21.13;;;15.27;;
59530;SDS011;45349;48.692;8.186;2022-09-25T08:59:30;23.20;;;15.90;;
59530;SDS011;45349;48.692;8.186;2022-09-25T09:02:07;18.77;;;14.27;;
59530;SDS011;45349;48.692;8.186;2022-09-25T09:04:40;23.43;;;16.80;;
59530;SDS011;45349;48.692;8.186;2022-09-25T09:07:10;20.60;;;16.17;;
59530;SDS011;45349;48.692;8.186;2022-09-25T09:09:43;25.37;;;16.23;;
59530;SDS011;45349;48.692;8.186;2022-09-25T09:12:15;24.60;;;17.47;;
59530;SDS011;45349;48.692;8.186;2022-09-25T09:14:47;28.37;;;16.17;;
59530;SDS011;45349;48.692;8.186;2022-09-25T09:17:16;28.87;;;18.03;;
59530;SDS011;45349;48.692;8.186;2022-09-25T09:19:45;28.87;;;18.73;;
59530;SDS011;45349;48.692;8.186;2022-09-25T09:22:14;32.77;;;20.50;;
59530;SDS011;45349;48.692;8.186;2022-09-25T09:24:58;26.63;;;19.30;;
59530;SDS011;45349;48.692;8.186;2022-09-25T09:27:36;26.80;;;19.17;;
59530;SDS011;45349;48.692;8.186;2022-09-25T09:30:17;29.40;;;20.00;;
59530;SDS011;45349;48.692;8.186;2022-09-25T09:32:52;35.03;;;20.93;;
59530;SDS011;45349;48.692;8.186;2022-09-25T09:35:35;31.33;;;21.23;;
59530;SDS011;45349;48.692;8.186;2022-09-25T09:38:12;31.67;;;20.27;;
59530;SDS011;45349;48.692;8.186;2022-09-25T09:40:58;31.23;;;21.37;;
59530;SDS011;45349;48.692;8.186;2022-09-25T09:43:37;38.03;;;22.70;;
59530;SDS011;45349;48.692;8.186;2022-09-25T09:46:14;29.37;;;19.83;;
59530;SDS011;45349;48.692;8.186;2022-09-25T09:48:48;28.67;;;20.47;;
59530;SDS011;45349;48.692;8.186;2022-09-25T09:51:24;32.47;;;21.57;;
59530;SDS011;45349;48.692;8.186;2022-09-25T09:53:57;29.37;;;20.07;;
59530;SDS011;45349;48.692;8.186;2022-09-25T09:56:29;30.83;;;20.80;;
59530;SDS011;45349;48.692;8.186;2022-09-25T09:59:01;32.63;;;20.37;;
59530;SDS011;45349;48.692;8.186;2022-09-25T10:01:30;34.87;;;22.87;;
59530;SDS011;45349;48.692;8.186;2022-09-25T10:04:02;35.83;;;23.60;;
59530;SDS011;45349;48.692;8.186;2022-09-25T10:06:32;30.37;;;21.60;;
59530;SDS011;45349;48.692;8.186;2022-09-25T10:09:01;33.73;;;22.60;;
59530;SDS011;45349;48.692;8.186;2022-09-25T10:11:28;32.63;;;21.93;;
59530;SDS011;45349;48.692;8.186;2022-09-25T10:13:57;29.87;;;20.63;;
59530;SDS011;45349;48.692;8.186;2022-09-25T10:16:30;33.93;;;21.40;;
59530;SDS011;45349;48.692;8.186;2022-09-25T10:18:58;33.27;;;22.37;;
59530;SDS011;45349;48.692;8.186;2022-09-25T10:21:29;29.80;;;20.67;;
59530;SDS011;45349;48.692;8.186;2022-09-25T10:23:59;31.30;;;21.13;;
59530;SDS011;45349;48.692;8.186;2022-09-25T10:26:27;30.87;;;21.00;;
59530;SDS011;45349;48.692;8.186;2022-09-25T10:28:56;29.97;;;20.30;;
59530;SDS011;45349;48.692;8.186;2022-09-25T10:31:24;31.40;;;21.77;;
59530;SDS011;45349;48.692;8.186;2022-09-25T10:34:02;38.37;;;22.63;;
59530;SDS011;45349;48.692;8.186;2022-09-25T10:36:31;32.47;;;21.73;;
59530;SDS011;45349;48.692;8.186;2022-09-25T10:39:00;32.80;;;22.03;;
59530;SDS011;45349;48.692;8.186;2022-09-25T10:41:30;34.37;;;22.43;;
59530;SDS011;45349;48.692;8.186;2022-09-25T10:44:08;33.63;;;23.30;;
59530;SDS011;45349;48.692;8.186;2022-09-25T10:46:46;33.60;;;22.97;;
59530;SDS011;45349;48.692;8.186;2022-09-25T10:49:31;32.13;;;22.47;;
59530;SDS011;45349;48.692;8.186;2022-09-25T10:52:40;36.27;;;22.53;;
59530;SDS011;45349;48.692;8.186;2022-09-25T10:55:12;30.90;;;21.00;;
59530;SDS011;45349;48.692;8.186;2022-09-25T10:57:41;34.07;;;22.43;;
59530;SDS011;45349;48.692;8.186;2022-09-25T11:00:18;36.60;;;22.60;;
59530;SDS011;45349;48.692;8.186;2022-09-25T11:02:46;44.90;;;24.80;;
59530;SDS011;45349;48.692;8.186;2022-09-25T11:05:19;39.77;;;24.80;;
59530;SDS011;45349;48.692;8.186;2022-09-25T11:07:50;37.97;;;23.07;;
59530;SDS011;45349;48.692;8.186;2022-09-25T11:10:20;32.53;;;23.00;;
59530;SDS011;45349;48.692;8.186;2022-09-25T11:12:48;38.67;;;25.23;;
59530;SDS011;45349;48.692;8.186;2022-09-25T11:15:17;37.90;;;23.77;;
59530;SDS011;45349;48.692;8.186;2022-09-25T11:17:47;44.93;;;28.37;;
59530;SDS011;45349;48.692;8.186;2022-09-25T11:20:21;54.93;;;37.33;;
59530;SDS011;45349;48.692;8.186;2022-09-25T11:23:06;35.87;;;23.33;;
59530;SDS011;45349;48.692;8.186;2022-09-25T11:25:50;35.17;;;24.20;;
59530;SDS011;45349;48.692;8.186;2022-09-25T11:28:24;30.90;;;21.33;;
59530;SDS011;45349;48.692;8.186;2022-09-25T11:30:59;35.20;;;22.17;;
59530;SDS011;45349;48.692;8.186;2022-09-25T11:33:35;30.03;;;21.30;;
59530;SDS011;45349;48.692;8.186;2022-09-25T11:36:09;25.87;;;19.77;;
59530;SDS011;45349;48.692;8.186;2022-09-25T11:38:42;25.70;;;18.87;;
59530;SDS011;45349;48.692;8.186;2022-09-25T11:41:30;28.53;;;18.60;;
59530;SDS011;45349;48.692;8.186;2022-09-25T11:44:06;28.53;;;19.03;;
59530;SDS011;45349;48.692;8.186;2022-09-25T11:46:40;26.97;;;18.17;;
59530;SDS011;45349;48.692;8.186;2022-09-25T11:49:18;24.77;;;19.33;;
59530;SDS011;45349;48.692;8.186;2022-09-25T11:57:54;26.90;;;18.60;;
59530;SDS011;45349;48.692;8.186;2022-09-25T12:00:27;24.10;;;18.00;;
59530;SDS011;45349;48.692;8.186;2022-09-25T12:03:08;24.90;;;17.03;;
59530;SDS011;45349;48.692;8.186;2022-09-25T12:05:50;27.27;;;18.80;;
59530;SDS011;45349;48.692;8.186;2022-09-25T12:08:38;36.47;;;22.33;;
59530;SDS011;45349;48.692;8.186;2022-09-25T12:11:18;27.27;;;17.00;;
59530;SDS011;45349;48.692;8.186;2022-09-25T12:13:53;20.00;;;15.30;;
59530;SDS011;45349;48.692;8.186;2022-09-25T12:16:31;21.90;;;17.07;;
59530;SDS011;45349;48.692;8.186;2022-09-25T12:21:57;23.27;;;16.70;;
59530;SDS011;45349;48.692;8.186;2022-09-25T12:24:40;20.03;;;14.57;;
59530;SDS011;45349;48.692;8.186;2022-09-25T12:27:18;21.40;;;15.87;;
59530;SDS011;45349;48.692;8.186;2022-09-25T12:30:12;18.87;;;14.87;;
59530;SDS011;45349;48.692;8.186;2022-09-25T12:35:47;18.87;;;14.70;;
59530;SDS011;45349;48.692;8.186;2022-09-25T12:38:22;19.80;;;15.00;;
59530;SDS011;45349;48.692;8.186;2022-09-25T12:40:58;17.40;;;13.30;;
59530;SDS011;45349;48.692;8.186;2022-09-25T12:43:34;16.87;;;12.67;;
59530;SDS011;45349;48.692;8.186;2022-09-25T12:46:08;18.07;;;12.60;;
59530;SDS011;45349;48.692;8.186;2022-09-25T12:48:41;17.83;;;11.80;;
59530;SDS011;45349;48.692;8.186;2022-09-25T12:51:12;16.63;;;11.33;;
59530;SDS011;45349;48.692;8.186;2022-09-25T12:53:46;20.37;;;13.77;;
59530;SDS011;45349;48.692;8.186;2022-09-25T12:56:18;14.97;;;11.90;;
59530;SDS011;45349;48.692;8.186;2022-09-25T12:58:52;16.83;;;12.57;;
59530;SDS011;45349;48.692;8.186;2022-09-25T13:01:25;16.90;;;12.90;;
59530;SDS011;45349;48.692;8.186;2022-09-25T13:04:03;17.17;;;11.53;;
59530;SDS011;45349;48.692;8.186;2022-09-25T13:06:41;16.20;;;12.17;;
59530;SDS011;45349;48.692;8.186;2022-09-25T13:09:16;19.77;;;13.67;;
59530;SDS011;45349;48.692;8.186;2022-09-25T13:11:55;17.30;;;12.03;;
59530;SDS011;45349;48.692;8.186;2022-09-25T13:14:29;20.83;;;13.20;;
59530;SDS011;45349;48.692;8.186;2022-09-25T13:17:00;18.17;;;13.07;;
59530;SDS011;45349;48.692;8.186;2022-09-25T13:19:28;20.60;;;12.70;;
59530;SDS011;45349;48.692;8.186;2022-09-25T13:21:58;17.13;;;11.20;;
59530;SDS011;45349;48.692;8.186;2022-09-25T13:24:27;16.27;;;11.77;;
59530;SDS011;45349;48.692;8.186;2022-09-25T13:26:58;13.77;;;10.87;;
59530;SDS011;45349;48.692;8.186;2022-09-25T13:29:29;16.70;;;11.27;;
59530;SDS011;45349;48.692;8.186;2022-09-25T13:32:04;15.57;;;10.70;;
59530;SDS011;45349;48.692;8.186;2022-09-25T13:34:34;15.93;;;11.53;;
59530;SDS011;45349;48.692;8.186;2022-09-25T13:37:04;16.40;;;11.47;;
59530;SDS011;45349;48.692;8.186;2022-09-25T13:39:34;18.70;;;11.87;;
59530;SDS011;45349;48.692;8.186;2022-09-25T13:42:22;16.27;;;11.40;;
59530;SDS011;45349;48.692;8.186;2022-09-25T13:45:00;20.07;;;11.60;;
59530;SDS011;45349;48.692;8.186;2022-09-25T13:47:41;15.50;;;10.63;;
59530;SDS011;45349;48.692;8.186;2022-09-25T13:53:15;12.93;;;9.97;;
59530;SDS011;45349;48.692;8.186;2022-09-25T14:01:57;15.80;;;11.00;;
59530;SDS011;45349;48.692;8.186;2022-09-25T14:04:48;15.87;;;10.93;;
59530;SDS011;45349;48.692;8.186;2022-09-25T14:07:17;16.63;;;11.37;;
59530;SDS011;45349;48.692;8.186;2022-09-25T14:09:47;15.80;;;11.13;;
59530;SDS011;45349;48.692;8.186;2022-09-25T14:12:20;17.63;;;11.53;;
59530;SDS011;45349;48.692;8.186;2022-09-25T14:14:52;15.47;;;10.53;;
59530;SDS011;45349;48.692;8.186;2022-09-25T14:17:24;17.23;;;10.87;;
59530;SDS011;45349;48.692;8.186;2022-09-25T14:19:56;17.67;;;11.47;;
59530;SDS011;45349;48.692;8.186;2022-09-25T14:22:29;17.50;;;10.53;;
59530;SDS011;45349;48.692;8.186;2022-09-25T14:27:52;9.87;;;6.73;;
59530;SDS011;45349;48.692;8.186;2022-09-25T14:30:20;13.17;;;8.63;;
59530;SDS011;45349;48.692;8.186;2022-09-25T14:32:57;15.47;;;10.43;;
59530;SDS011;45349;48.692;8.186;2022-09-25T14:35:45;15.93;;;10.63;;
59530;SDS011;45349;48.692;8.186;2022-09-25T14:41:41;13.33;;;9.57;;
59530;SDS011;45349;48.692;8.186;2022-09-25T14:44:30;14.40;;;10.00;;
59530;SDS011;45349;48.692;8.186;2022-09-25T14:47:14;14.33;;;10.57;;
59530;SDS011;45349;48.692;8.186;2022-09-25T14:49:44;18.50;;;11.47;;
59530;SDS011;45349;48.692;8.186;2022-09-25T14:52:16;14.87;;;11.13;;
59530;SDS011;45349;48.692;8.186;2022-09-25T14:54:48;11.67;;;9.97;;
59530;SDS011;45349;48.692;8.186;2022-09-25T14:57:19;10.37;;;8.10;;
59530;SDS011;45349;48.692;8.186;2022-09-25T14:59:51;10.77;;;4.87;;
59530;SDS011;45349;48.692;8.186;2022-09-25T15:02:22;9.40;;;6.13;;
59530;SDS011;45349;48.692;8.186;2022-09-25T15:04:58;6.77;;;4.87;;
59530;SDS011;45349;48.692;8.186;2022-09-25T15:07:41;6.93;;;5.23;;
59530;SDS011;45349;48.692;8.186;2022-09-25T15:10:18;8.13;;;5.70;;
59530;SDS011;45349;48.692;8.186;2022-09-25T15:12:51;8.87;;;5.63;;
59530;SDS011;45349;48.692;8.186;2022-09-25T15:15:18;10.73;;;5.50;;
59530;SDS011;45349;48.692;8.186;2022-09-25T15:17:46;7.30;;;5.10;;
59530;SDS011;45349;48.692;8.186;2022-09-25T15:20:18;11.33;;;5.17;;
59530;SDS011;45349;48.692;8.186;2022-09-25T15:22:47;10.57;;;5.73;;
59530;SDS011;45349;48.692;8.186;2022-09-25T15:25:19;16.43;;;9.90;;
59530;SDS011;45349;48.692;8.186;2022-09-25T15:27:49;14.27;;;10.00;;